createdAt,value
2022-11-11T00:00:13.160Z,75.10
2022-11-11T00:01:13.241Z,75.60
2022-11-11T00:02:13.094Z,75.70
2022-11-11T00:03:13.119Z,75.30
2022-11-11T00:04:13.359Z,75.00
2022-11-11T00:05:13.303Z,75.10
2022-11-11T00:06:13.187Z,75.70
2022-11-11T00:07:13.159Z,75.70
2022-11-11T00:08:13.160Z,76.00
2022-11-11T00:09:13.255Z,76.30
2022-11-11T00:10:13.289Z,76.60
2022-11-11T00:11:13.345Z,76.50
2022-11-11T00:12:13.308Z,76.80
2022-11-11T00:13:13.214Z,77.10
2022-11-11T00:14:13.559Z,77.40
2022-11-11T00:15:13.742Z,77.40
2022-11-11T00:16:13.712Z,77.20
2022-11-11T00:17:13.702Z,77.50
2022-11-11T00:18:13.858Z,77.70
2022-11-11T00:19:13.817Z,77.60
2022-11-11T00:20:13.764Z,77.70
2022-11-11T00:21:13.766Z,78.10
2022-11-11T00:22:13.874Z,78.20
2022-11-11T00:23:13.989Z,78.20
2022-11-11T00:24:13.207Z,78.20
2022-11-11T00:25:13.145Z,78.00
2022-11-11T00:26:38.004Z,77.90
2022-11-11T00:27:13.135Z,78.10
2022-11-11T00:28:13.442Z,78.20
2022-11-11T00:29:13.637Z,78.40
2022-11-11T00:30:13.630Z,78.10
2022-11-11T00:31:13.881Z,77.70
2022-11-11T00:32:13.236Z,78.30
2022-11-11T00:33:13.607Z,78.10
2022-11-11T00:34:13.755Z,78.20
2022-11-11T00:35:13.749Z,78.20
2022-11-11T00:36:13.762Z,78.30
2022-11-11T00:37:14.170Z,78.60
2022-11-11T00:38:13.605Z,78.20
2022-11-11T00:39:13.645Z,78.00
2022-11-11T00:40:13.566Z,77.90
2022-11-11T00:41:13.851Z,78.00
2022-11-11T00:42:13.893Z,78.00
2022-11-11T00:43:12.833Z,78.30
2022-11-11T00:44:13.733Z,78.10
2022-11-11T00:45:13.638Z,78.40
2022-11-11T00:46:13.912Z,78.10
2022-11-11T00:47:12.843Z,77.90
2022-11-11T00:48:12.993Z,78.00
2022-11-11T00:49:12.957Z,78.40
2022-11-11T00:50:12.990Z,78.30
2022-11-11T00:51:12.982Z,78.50
2022-11-11T00:52:13.816Z,78.50
2022-11-11T00:53:14.873Z,78.00
2022-11-11T00:54:13.893Z,77.80
2022-11-11T00:55:12.971Z,77.80
2022-11-11T00:56:13.226Z,77.60
2022-11-11T00:57:13.443Z,77.70
2022-11-11T00:58:13.697Z,77.70
2022-11-11T00:59:14.097Z,77.40
2022-11-11T01:00:14.031Z,78.00
2022-11-11T01:01:13.067Z,77.50
2022-11-11T01:02:13.079Z,77.80
2022-11-11T01:03:13.166Z,77.40
2022-11-11T01:04:13.054Z,77.30
2022-11-11T01:05:13.025Z,77.30
2022-11-11T01:06:13.088Z,77.40
2022-11-11T01:07:13.225Z,77.20
2022-11-11T01:08:13.404Z,77.50
2022-11-11T01:09:13.609Z,77.50
2022-11-11T01:10:13.713Z,77.30
2022-11-11T01:11:13.647Z,77.40
2022-11-11T01:12:13.681Z,77.10
2022-11-11T01:13:13.851Z,77.00
2022-11-11T01:14:13.847Z,77.30
2022-11-11T01:15:13.813Z,77.70
2022-11-11T01:16:18.858Z,77.20
2022-11-11T01:17:14.252Z,77.30
2022-11-11T01:18:13.520Z,77.50
2022-11-11T01:19:13.563Z,77.50
2022-11-11T01:20:13.481Z,77.50
2022-11-11T01:21:13.585Z,77.10
2022-11-11T01:22:12.991Z,77.20
2022-11-11T01:23:13.372Z,77.40
2022-11-11T01:24:13.414Z,77.20
2022-11-11T01:25:13.387Z,76.60
2022-11-11T01:26:13.524Z,76.20
2022-11-11T01:27:13.536Z,76.60
2022-11-11T01:28:13.770Z,76.20
2022-11-11T01:29:13.724Z,76.50
2022-11-11T01:30:13.760Z,76.70
2022-11-11T01:31:13.906Z,76.70
2022-11-11T01:32:13.154Z,76.60
2022-11-11T01:33:13.341Z,77.10
2022-11-11T01:34:13.546Z,76.60
2022-11-11T01:35:13.582Z,76.80
2022-11-11T01:36:14.601Z,76.70
2022-11-11T01:37:14.031Z,76.40
2022-11-11T01:38:13.024Z,76.70
2022-11-11T01:39:13.022Z,76.90
2022-11-11T01:40:13.651Z,76.40
2022-11-11T01:41:14.137Z,76.30
2022-11-11T01:42:13.338Z,76.50
2022-11-11T01:43:13.684Z,76.80
2022-11-11T01:44:13.869Z,76.90
2022-11-11T01:45:12.876Z,76.70
2022-11-11T01:46:13.045Z,76.60
2022-11-11T01:47:13.007Z,76.60
2022-11-11T01:48:25.573Z,76.80
2022-11-11T01:49:13.824Z,76.40
2022-11-11T01:50:13.851Z,76.10
2022-11-11T01:51:13.850Z,76.40
2022-11-11T01:52:13.929Z,76.40
2022-11-11T01:53:12.946Z,76.00
2022-11-11T01:54:13.065Z,75.80
2022-11-11T01:55:13.258Z,76.10
2022-11-11T01:56:13.314Z,75.90
2022-11-11T01:57:13.357Z,76.00
2022-11-11T01:58:13.299Z,76.10
2022-11-11T01:59:13.362Z,76.30
2022-11-11T02:00:13.370Z,76.10
2022-11-11T02:01:13.536Z,75.80
2022-11-11T02:02:13.611Z,75.90
2022-11-11T02:03:13.545Z,76.00
2022-11-11T02:04:13.750Z,76.10
2022-11-11T02:05:13.971Z,75.80
2022-11-11T02:06:12.953Z,75.90
2022-11-11T02:07:13.012Z,75.90
2022-11-11T02:08:13.075Z,75.80
2022-11-11T02:09:13.227Z,75.40
2022-11-11T02:10:13.368Z,75.00
2022-11-11T02:11:13.783Z,75.20
2022-11-11T02:12:13.391Z,75.50
2022-11-11T02:13:13.317Z,75.40
2022-11-11T02:14:13.600Z,75.40
2022-11-11T02:15:13.582Z,75.70
2022-11-11T02:16:13.908Z,75.80
2022-11-11T02:17:12.958Z,75.70
2022-11-11T02:18:13.029Z,75.70
2022-11-11T02:19:13.150Z,75.20
2022-11-11T02:20:13.235Z,74.70
2022-11-11T02:21:13.189Z,74.60
2022-11-11T02:22:13.345Z,75.00
2022-11-11T02:23:13.490Z,75.50
2022-11-11T02:24:13.582Z,75.70
2022-11-11T02:25:13.999Z,75.50
2022-11-11T02:26:12.868Z,75.10
2022-11-11T02:27:13.984Z,75.10
2022-11-11T02:28:13.227Z,75.20
2022-11-11T02:29:13.368Z,75.40
2022-11-11T02:30:13.597Z,75.30
2022-11-11T02:31:13.769Z,74.90
2022-11-11T02:32:13.960Z,74.60
2022-11-11T02:33:12.959Z,74.70
2022-11-11T02:34:13.124Z,74.70
2022-11-11T02:35:13.059Z,74.60
2022-11-11T02:36:13.622Z,74.80
2022-11-11T02:37:13.766Z,75.10
2022-11-11T02:38:14.023Z,74.70
2022-11-11T02:39:13.094Z,74.50
2022-11-11T02:40:13.152Z,74.20
2022-11-11T02:41:13.297Z,74.70
2022-11-11T02:42:13.266Z,74.90
2022-11-11T02:43:13.369Z,74.80
2022-11-11T02:44:13.459Z,74.80
2022-11-11T02:45:13.541Z,74.80
2022-11-11T02:46:13.551Z,75.30
2022-11-11T02:47:13.621Z,75.50
2022-11-11T02:48:13.648Z,75.60
2022-11-11T02:49:13.751Z,75.20
2022-11-11T02:50:14.127Z,75.10
2022-11-11T02:51:13.440Z,75.20
2022-11-11T02:52:13.358Z,74.90
2022-11-11T02:53:13.817Z,74.90
2022-11-11T02:54:13.947Z,74.70
2022-11-11T02:55:13.213Z,74.50
2022-11-11T02:56:13.247Z,74.50
2022-11-11T02:57:13.394Z,74.90
2022-11-11T02:58:13.715Z,74.80
2022-11-11T02:59:13.837Z,75.20
2022-11-11T03:00:13.988Z,75.50
2022-11-11T03:01:13.639Z,75.40
2022-11-11T03:02:13.595Z,75.30
2022-11-11T03:03:14.001Z,75.40
2022-11-11T03:04:13.302Z,75.00
2022-11-11T03:05:13.321Z,75.10
2022-11-11T03:06:13.613Z,75.50
2022-11-11T03:07:13.634Z,75.60
2022-11-11T03:08:13.826Z,75.80
2022-11-11T03:09:13.128Z,75.40
2022-11-11T03:10:13.189Z,75.30
2022-11-11T03:11:13.131Z,75.70
2022-11-11T03:12:13.163Z,75.30
2022-11-11T03:13:13.562Z,75.40
2022-11-11T03:14:13.512Z,75.20
2022-11-11T03:15:13.648Z,74.90
2022-11-11T03:16:13.654Z,75.20
2022-11-11T03:17:13.591Z,75.80
2022-11-11T03:18:14.106Z,75.80
2022-11-11T03:19:13.217Z,75.20
2022-11-11T03:20:13.312Z,74.90
2022-11-11T03:21:57.638Z,74.90
2022-11-11T03:23:13.680Z,74.50
2022-11-11T03:24:13.555Z,74.70
2022-11-11T03:25:13.478Z,75.10
2022-11-11T03:26:13.413Z,75.10
2022-11-11T03:27:13.357Z,75.10
2022-11-11T03:28:13.458Z,74.60
2022-11-11T03:29:13.608Z,74.40
2022-11-11T03:30:13.806Z,74.50
2022-11-11T03:31:14.115Z,74.50
2022-11-11T03:32:13.055Z,74.90
2022-11-11T03:33:12.987Z,74.70
2022-11-11T03:34:12.923Z,74.80
2022-11-11T03:35:12.808Z,74.50
2022-11-11T03:36:15.192Z,74.50
2022-11-11T03:37:13.147Z,74.20
2022-11-11T03:38:13.141Z,74.50
2022-11-11T03:39:13.058Z,74.30
2022-11-11T03:40:13.070Z,74.80
2022-11-11T03:41:13.003Z,74.60
2022-11-11T03:42:12.982Z,74.70
2022-11-11T03:43:13.158Z,74.70
2022-11-11T03:44:12.987Z,74.70
2022-11-11T03:45:12.812Z,74.70
2022-11-11T03:46:13.979Z,74.60
2022-11-11T03:47:12.833Z,74.70
2022-11-11T03:48:13.862Z,74.90
2022-11-11T03:49:14.082Z,74.80
2022-11-11T03:50:12.977Z,74.60
2022-11-11T03:51:13.016Z,74.60
2022-11-11T03:52:13.008Z,74.40
2022-11-11T03:53:13.128Z,74.10
2022-11-11T03:54:13.013Z,74.10
2022-11-11T03:55:12.972Z,74.30
2022-11-11T03:56:12.962Z,74.10
2022-11-11T03:57:12.901Z,74.40
2022-11-11T03:58:13.009Z,74.40
2022-11-11T03:59:13.359Z,74.50
2022-11-11T04:00:14.794Z,74.50
2022-11-11T04:01:13.277Z,74.10
2022-11-11T04:02:13.449Z,74.10
2022-11-11T04:03:13.378Z,73.80
2022-11-11T04:04:13.598Z,73.10
2022-11-11T04:05:13.636Z,73.70
2022-11-11T04:06:13.647Z,73.90
2022-11-11T04:07:13.911Z,73.90
2022-11-11T04:08:13.187Z,73.30
2022-11-11T04:09:13.193Z,73.40
2022-11-11T04:10:13.050Z,73.60
2022-11-11T04:11:12.831Z,73.70
2022-11-11T04:12:15.889Z,73.60
2022-11-11T04:13:12.837Z,73.00
2022-11-11T04:14:14.847Z,72.70
2022-11-11T04:15:13.982Z,73.20
2022-11-11T04:16:13.454Z,73.50
2022-11-11T04:17:13.559Z,73.40
2022-11-11T04:18:13.756Z,73.20
2022-11-11T04:19:13.683Z,73.70
2022-11-11T04:20:13.684Z,73.70
2022-11-11T04:21:13.645Z,73.40
2022-11-11T04:22:13.534Z,73.50
2022-11-11T04:23:13.476Z,73.90
2022-11-11T04:24:14.800Z,74.00
2022-11-11T04:25:13.715Z,73.50
2022-11-11T04:26:13.595Z,73.60
2022-11-11T04:27:13.504Z,73.90
2022-11-11T04:28:13.628Z,73.80
2022-11-11T04:29:13.878Z,73.80
2022-11-11T04:30:13.035Z,74.10
2022-11-11T04:31:13.248Z,73.50
2022-11-11T04:32:13.254Z,74.20
2022-11-11T04:33:13.144Z,74.00
2022-11-11T04:34:13.269Z,74.00
2022-11-11T04:35:13.144Z,73.80
2022-11-11T04:36:13.093Z,74.20
2022-11-11T04:37:12.994Z,74.40
2022-11-11T04:38:12.997Z,74.30
2022-11-11T04:39:12.879Z,73.80
2022-11-11T04:40:13.801Z,73.40
2022-11-11T04:41:14.079Z,73.50
2022-11-11T04:42:12.947Z,73.70
2022-11-11T04:43:12.828Z,73.70
2022-11-11T04:44:13.815Z,73.90
2022-11-11T04:45:13.838Z,73.90
2022-11-11T04:46:13.876Z,73.90
2022-11-11T04:47:13.973Z,73.70
2022-11-11T04:48:13.030Z,73.60
2022-11-11T04:49:12.961Z,73.60
2022-11-11T04:50:12.969Z,73.80
2022-11-11T04:51:13.152Z,73.70
2022-11-11T04:52:13.115Z,73.60
2022-11-11T04:53:13.158Z,73.80
2022-11-11T04:54:13.207Z,74.10
2022-11-11T04:55:13.428Z,74.50
2022-11-11T04:56:13.856Z,74.60
2022-11-11T04:57:13.890Z,74.60
2022-11-11T04:58:13.811Z,74.30
2022-11-11T04:59:13.646Z,74.20
2022-11-11T05:00:14.640Z,73.80
2022-11-11T05:01:13.830Z,73.70
2022-11-11T05:02:13.731Z,73.30
2022-11-11T05:03:14.285Z,73.40
2022-11-11T05:04:13.337Z,73.10
2022-11-11T05:05:13.265Z,72.70
2022-11-11T05:06:13.559Z,72.90
2022-11-11T05:07:13.693Z,72.90
2022-11-11T05:08:13.882Z,72.80
2022-11-11T05:09:14.227Z,72.70
2022-11-11T05:10:13.124Z,72.70
2022-11-11T05:11:13.345Z,72.50
2022-11-11T05:12:13.527Z,72.70
2022-11-11T05:13:13.878Z,72.50
2022-11-11T05:14:13.933Z,72.60
2022-11-11T05:15:12.920Z,72.80
2022-11-11T05:16:12.870Z,72.90
2022-11-11T05:17:13.794Z,72.70
2022-11-11T05:18:13.762Z,72.90
2022-11-11T05:19:13.804Z,72.80
2022-11-11T05:20:13.978Z,72.60
2022-11-11T05:21:12.935Z,72.60
2022-11-11T05:22:13.354Z,72.40
2022-11-11T05:23:13.672Z,72.50
2022-11-11T05:24:13.736Z,72.80
2022-11-11T05:25:13.807Z,72.80
2022-11-11T05:26:13.802Z,72.20
2022-11-11T05:27:13.809Z,71.90
2022-11-11T05:28:13.837Z,71.70
2022-11-11T05:29:13.694Z,71.80
2022-11-11T05:30:13.693Z,72.30
2022-11-11T05:31:13.635Z,72.40
2022-11-11T05:32:13.629Z,72.70
2022-11-11T05:33:13.874Z,72.50
2022-11-11T05:34:14.214Z,72.50
2022-11-11T05:35:13.119Z,72.80
2022-11-11T05:36:13.007Z,72.40
2022-11-11T05:37:12.959Z,72.70
2022-11-11T05:38:12.976Z,72.70
2022-11-11T05:39:12.934Z,72.90
2022-11-11T05:40:13.118Z,72.20
2022-11-11T05:41:12.982Z,72.00
2022-11-11T05:42:12.842Z,72.50
2022-11-11T05:43:14.190Z,72.10
2022-11-11T05:44:13.518Z,72.20
2022-11-11T05:45:13.462Z,72.40
2022-11-11T05:46:13.421Z,72.20
2022-11-11T05:47:13.333Z,72.30
2022-11-11T05:48:13.577Z,72.50
2022-11-11T05:49:14.097Z,72.50
2022-11-11T05:50:13.282Z,72.30
2022-11-11T05:51:13.493Z,72.50
2022-11-11T05:52:13.431Z,72.20
2022-11-11T05:53:13.314Z,72.60
2022-11-11T05:54:13.341Z,72.60
2022-11-11T05:55:13.441Z,72.60
2022-11-11T05:56:13.877Z,72.60
2022-11-11T05:57:13.912Z,72.50
2022-11-11T05:58:13.240Z,72.90
2022-11-11T05:59:13.207Z,73.20
2022-11-11T06:00:35.518Z,73.10
2022-11-11T06:01:13.660Z,73.10
2022-11-11T06:02:13.945Z,73.00
2022-11-11T06:03:13.234Z,72.70
2022-11-11T06:04:17.952Z,73.20
2022-11-11T06:05:13.759Z,73.10
2022-11-11T06:06:13.786Z,73.20
2022-11-11T06:07:13.675Z,73.20
2022-11-11T06:08:13.660Z,73.20
2022-11-11T06:09:13.628Z,73.20
2022-11-11T06:10:13.998Z,73.20
2022-11-11T06:11:13.116Z,73.20
2022-11-11T06:12:13.201Z,73.00
2022-11-11T06:13:13.393Z,73.50
2022-11-11T06:14:13.311Z,73.70
2022-11-11T06:15:13.515Z,73.60
2022-11-11T06:16:13.915Z,74.10
2022-11-11T06:17:13.213Z,74.30
2022-11-11T06:18:13.251Z,74.00
2022-11-11T06:19:13.482Z,74.00
2022-11-11T06:20:13.611Z,74.10
2022-11-11T06:21:13.772Z,74.10
2022-11-11T06:22:13.876Z,74.00
2022-11-11T06:23:14.063Z,74.10
2022-11-11T06:24:13.368Z,74.30
2022-11-11T06:25:13.546Z,74.20
2022-11-11T06:26:13.730Z,74.20
2022-11-11T06:27:13.791Z,74.10
2022-11-11T06:28:13.715Z,74.20
2022-11-11T06:29:13.616Z,74.00
2022-11-11T06:30:44.301Z,73.80
2022-11-11T06:31:12.924Z,73.90
2022-11-11T06:32:12.832Z,74.60
2022-11-11T06:33:14.075Z,74.70
2022-11-11T06:34:13.010Z,74.30
2022-11-11T06:35:13.068Z,74.40
2022-11-11T06:36:13.007Z,74.00
2022-11-11T06:37:23.189Z,74.40
2022-11-11T06:38:13.111Z,74.50
2022-11-11T06:39:13.056Z,74.60
2022-11-11T06:40:17.494Z,74.40
2022-11-11T06:41:13.501Z,74.30
2022-11-11T06:42:13.430Z,74.40
2022-11-11T06:43:13.275Z,74.70
2022-11-11T06:44:13.126Z,74.80
2022-11-11T06:45:13.062Z,75.00
2022-11-11T06:46:18.262Z,74.40
2022-11-11T06:47:13.475Z,74.90
2022-11-11T06:48:13.391Z,74.70
2022-11-11T06:49:13.342Z,74.60
2022-11-11T06:50:13.608Z,74.50
2022-11-11T06:51:13.627Z,74.60
2022-11-11T06:52:13.506Z,74.40
2022-11-11T06:53:13.788Z,74.80
2022-11-11T06:54:14.040Z,74.70
2022-11-11T06:55:12.996Z,73.90
2022-11-11T06:56:12.828Z,74.40
2022-11-11T06:57:13.746Z,74.30
2022-11-11T06:58:13.901Z,74.30
2022-11-11T06:59:12.995Z,74.00
2022-11-11T07:00:12.882Z,74.10
2022-11-11T07:01:13.009Z,74.20
2022-11-11T07:02:13.237Z,74.20
2022-11-11T07:03:13.680Z,74.70
2022-11-11T07:04:13.774Z,74.80
2022-11-11T07:05:14.092Z,74.60
2022-11-11T07:06:13.038Z,74.40
2022-11-11T07:07:13.405Z,74.10
2022-11-11T07:08:13.315Z,74.50
2022-11-11T07:09:13.490Z,74.70
2022-11-11T07:10:13.553Z,74.30
2022-11-11T07:11:18.700Z,74.20
2022-11-11T07:12:13.450Z,73.90
2022-11-11T07:13:13.357Z,73.60
2022-11-11T07:14:13.252Z,73.60
2022-11-11T07:15:13.275Z,73.40
2022-11-11T07:16:13.143Z,73.40
2022-11-11T07:17:14.139Z,73.70
2022-11-11T07:18:13.040Z,73.40
2022-11-11T07:19:13.025Z,73.30
2022-11-11T07:20:13.089Z,73.60
2022-11-11T07:21:13.217Z,72.40
2022-11-11T07:22:13.212Z,71.80
2022-11-11T07:23:13.475Z,71.60
2022-11-11T07:24:13.350Z,71.70
2022-11-11T07:25:13.512Z,71.40
2022-11-11T07:26:13.470Z,71.00
2022-11-11T07:27:13.416Z,71.20
2022-11-11T07:28:13.350Z,70.80
2022-11-11T07:29:13.324Z,71.50
2022-11-11T07:30:13.209Z,71.30
2022-11-11T07:31:13.452Z,70.90
2022-11-11T07:32:13.331Z,70.60
2022-11-11T07:33:13.236Z,70.10
2022-11-11T07:34:13.288Z,69.70
2022-11-11T07:35:13.347Z,69.70
2022-11-11T07:36:13.240Z,69.60
2022-11-11T07:37:13.150Z,69.40
2022-11-11T07:38:13.494Z,69.40
2022-11-11T07:39:13.415Z,69.60
2022-11-11T07:40:13.656Z,69.30
2022-11-11T07:41:13.718Z,68.90
2022-11-11T07:42:30.269Z,67.90
2022-11-11T07:43:12.851Z,68.30
2022-11-11T07:44:13.789Z,68.00
2022-11-11T07:45:13.754Z,67.90
2022-11-11T07:46:13.893Z,68.20
2022-11-11T07:47:12.859Z,67.60
2022-11-11T07:48:14.118Z,67.40
2022-11-11T07:49:13.019Z,67.40
2022-11-11T07:50:13.087Z,67.30
2022-11-11T07:51:13.049Z,67.30
2022-11-11T07:52:12.883Z,66.80
2022-11-11T07:53:13.818Z,66.80
2022-11-11T07:54:13.785Z,66.50
2022-11-11T07:55:14.004Z,66.40
2022-11-11T07:56:12.991Z,66.50
2022-11-11T07:57:12.824Z,66.40
2022-11-11T07:58:13.702Z,65.80
2022-11-11T07:59:13.882Z,65.50
2022-11-11T08:00:12.885Z,65.30
2022-11-11T08:01:12.898Z,64.70
2022-11-11T08:02:12.729Z,65.00
2022-11-11T08:03:13.622Z,65.20
2022-11-11T08:04:13.658Z,64.70
2022-11-11T08:05:13.960Z,64.30
2022-11-11T08:06:13.182Z,64.20
2022-11-11T08:07:13.268Z,64.00
2022-11-11T08:08:13.262Z,64.20
2022-11-11T08:09:13.308Z,64.20
2022-11-11T08:10:13.399Z,64.10
2022-11-11T08:11:13.338Z,63.70
2022-11-11T08:12:16.900Z,63.70
2022-11-11T08:13:13.560Z,63.90
2022-11-11T08:14:13.591Z,64.00
2022-11-11T08:15:13.600Z,63.50
2022-11-11T08:16:13.868Z,64.10
2022-11-11T08:17:13.992Z,63.80
2022-11-11T08:18:12.913Z,64.30
2022-11-11T08:19:12.979Z,64.30
2022-11-11T08:20:13.051Z,64.30
2022-11-11T08:21:13.224Z,64.00
2022-11-11T08:22:13.467Z,63.80
2022-11-11T08:23:49.856Z,63.60
2022-11-11T08:25:02.200Z,63.90
2022-11-11T08:25:13.700Z,63.90
2022-11-11T08:26:12.766Z,63.90
2022-11-11T08:27:13.629Z,63.40
2022-11-11T08:28:13.825Z,64.00
2022-11-11T08:29:13.754Z,63.30
2022-11-11T08:30:13.919Z,63.60
2022-11-11T08:31:13.105Z,63.80
2022-11-11T08:32:12.994Z,63.60
2022-11-11T08:33:32.728Z,63.40
2022-11-11T08:34:14.242Z,62.70
2022-11-11T08:35:14.278Z,63.10
2022-11-11T08:36:19.214Z,63.00
2022-11-11T08:37:13.980Z,63.10
2022-11-11T08:38:13.103Z,63.10
2022-11-11T08:39:13.035Z,63.10
2022-11-11T08:40:13.064Z,63.20
2022-11-11T08:41:13.212Z,62.90
2022-11-11T08:42:13.251Z,62.90
2022-11-11T08:43:13.566Z,62.70
2022-11-11T08:44:13.443Z,62.10
2022-11-11T08:45:13.701Z,61.90
2022-11-11T08:46:13.770Z,61.60
2022-11-11T08:47:13.694Z,61.10
2022-11-11T08:48:13.842Z,61.30
2022-11-11T08:49:14.113Z,61.80
2022-11-11T08:50:13.236Z,61.20
2022-11-11T08:51:13.242Z,61.30
2022-11-11T08:52:13.232Z,60.90
2022-11-11T08:53:13.041Z,61.20
2022-11-11T08:54:13.384Z,60.90
2022-11-11T08:55:13.334Z,61.30
2022-11-11T08:56:18.686Z,61.20
2022-11-11T08:57:13.570Z,60.70
2022-11-11T08:58:18.737Z,60.80
2022-11-11T08:59:13.958Z,60.40
2022-11-11T09:00:13.019Z,59.40
2022-11-11T09:01:12.989Z,59.60
2022-11-11T09:02:12.908Z,59.10
2022-11-11T09:03:12.758Z,58.90
2022-11-11T09:04:43.144Z,59.50
2022-11-11T09:05:13.627Z,59.50
2022-11-11T09:06:13.543Z,59.10
2022-11-11T09:07:13.524Z,59.00
2022-11-11T09:08:13.470Z,58.70
2022-11-11T09:09:13.467Z,58.30
2022-11-11T09:10:13.733Z,58.50
2022-11-11T09:11:13.639Z,58.20
2022-11-11T09:12:13.559Z,58.00
2022-11-11T09:13:13.680Z,58.00
2022-11-11T09:14:13.827Z,57.70
2022-11-11T09:15:13.688Z,57.40
2022-11-11T09:16:13.502Z,57.30
2022-11-11T09:17:13.360Z,57.60
2022-11-11T09:18:13.228Z,57.20
2022-11-11T09:19:13.040Z,57.10
2022-11-11T09:20:13.206Z,56.40
2022-11-11T09:21:13.163Z,57.10
2022-11-11T09:22:13.075Z,58.10
2022-11-11T09:23:13.220Z,57.40
2022-11-11T09:24:13.113Z,58.10
2022-11-11T09:25:13.030Z,58.00
2022-11-11T09:26:13.018Z,57.90
2022-11-11T09:27:13.234Z,57.50
2022-11-11T09:28:13.451Z,57.70
2022-11-11T09:29:13.366Z,56.60
2022-11-11T09:30:13.242Z,57.60
2022-11-11T09:31:43.316Z,57.00
2022-11-11T09:32:13.147Z,56.10
2022-11-11T09:33:13.262Z,56.80
2022-11-11T09:34:13.440Z,57.20
2022-11-11T09:35:13.546Z,56.70
2022-11-11T09:36:13.508Z,56.50
2022-11-11T09:37:13.529Z,55.90
2022-11-11T09:38:13.733Z,55.80
2022-11-11T09:39:14.250Z,55.70
2022-11-11T09:40:13.225Z,55.70
2022-11-11T09:41:13.215Z,54.90
2022-11-11T09:42:13.225Z,54.80
2022-11-11T09:43:13.160Z,55.20
2022-11-11T09:44:13.169Z,54.40
2022-11-11T09:45:13.243Z,53.80
2022-11-11T09:46:13.058Z,54.40
2022-11-11T09:47:13.127Z,54.30
2022-11-11T09:48:13.207Z,54.90
2022-11-11T09:49:13.190Z,55.50
2022-11-11T09:50:13.231Z,55.20
2022-11-11T09:51:13.461Z,54.00
2022-11-11T09:52:13.431Z,54.20
2022-11-11T09:53:13.405Z,53.80
2022-11-11T09:54:15.801Z,53.30
2022-11-11T09:55:12.911Z,53.00
2022-11-11T09:56:30.333Z,51.80
2022-11-11T09:57:13.461Z,51.60
2022-11-11T09:58:13.741Z,50.20
2022-11-11T09:59:14.025Z,49.40
2022-11-11T10:00:13.223Z,48.80
2022-11-11T10:01:13.323Z,49.90
2022-11-11T10:02:13.417Z,50.20
2022-11-11T10:03:13.375Z,49.50
2022-11-11T10:04:13.447Z,50.40
2022-11-11T10:05:13.477Z,51.40
2022-11-11T10:06:13.489Z,50.60
2022-11-11T10:07:13.954Z,51.40
2022-11-11T10:08:13.023Z,50.10
2022-11-11T10:09:12.895Z,50.60
2022-11-11T10:10:13.775Z,48.80
2022-11-11T10:11:13.781Z,48.40
2022-11-11T10:12:13.665Z,48.30
2022-11-11T10:13:13.568Z,48.20
2022-11-11T10:14:13.525Z,48.80
2022-11-11T10:15:13.336Z,48.50
2022-11-11T10:16:13.169Z,50.50
2022-11-11T10:17:13.500Z,49.50
2022-11-11T10:18:17.180Z,49.10
2022-11-11T10:19:13.399Z,47.80
2022-11-11T10:20:13.433Z,47.50
2022-11-11T10:21:13.651Z,49.00
2022-11-11T10:22:13.928Z,49.10
2022-11-11T10:23:13.029Z,47.80
2022-11-11T10:24:13.137Z,48.90
2022-11-11T10:25:13.316Z,49.20
2022-11-11T10:26:13.523Z,48.90
2022-11-11T10:27:13.657Z,50.40
2022-11-11T10:28:13.903Z,51.00
2022-11-11T10:29:12.926Z,49.90
2022-11-11T10:30:13.141Z,49.30
2022-11-11T10:31:13.295Z,49.50
2022-11-11T10:32:13.144Z,50.70
2022-11-11T10:33:13.416Z,51.10
2022-11-11T10:34:13.474Z,50.60
2022-11-11T10:35:13.367Z,49.60
2022-11-11T10:36:14.724Z,50.50
2022-11-11T10:37:13.729Z,51.30
2022-11-11T10:38:25.202Z,51.30
2022-11-11T10:39:13.323Z,49.90
2022-11-11T10:40:13.163Z,48.90
2022-11-11T10:41:13.135Z,49.30
2022-11-11T10:42:13.030Z,50.20
2022-11-11T10:43:13.204Z,49.50
2022-11-11T10:44:13.155Z,48.10
2022-11-11T10:45:13.980Z,46.50
2022-11-11T10:46:12.935Z,46.00
2022-11-11T10:47:12.949Z,47.00
2022-11-11T10:48:12.987Z,46.80
2022-11-11T10:49:13.050Z,46.90
2022-11-11T10:50:12.977Z,47.40
2022-11-11T10:51:13.041Z,47.40
2022-11-11T10:53:13.814Z,48.00
2022-11-11T10:54:13.956Z,45.60
2022-11-11T10:55:12.954Z,44.00
2022-11-11T10:56:13.247Z,46.50
2022-11-11T10:57:13.170Z,47.00
2022-11-11T10:58:13.085Z,46.80
2022-11-11T10:59:13.022Z,46.10
2022-11-11T11:00:12.819Z,45.10
2022-11-11T11:01:14.016Z,44.50
2022-11-11T11:02:13.126Z,43.60
2022-11-11T11:03:13.045Z,42.90
2022-11-11T11:04:12.968Z,44.40
2022-11-11T11:05:12.982Z,44.10
2022-11-11T11:06:12.831Z,43.90
2022-11-11T11:07:13.908Z,44.50
2022-11-11T11:08:12.853Z,42.60
2022-11-11T11:09:13.828Z,43.50
2022-11-11T11:10:13.732Z,42.90
2022-11-11T11:11:13.875Z,43.90
2022-11-11T11:12:13.907Z,44.30
2022-11-11T11:13:12.943Z,44.60
2022-11-11T11:14:12.806Z,43.20
2022-11-11T11:15:14.060Z,42.30
2022-11-11T11:16:13.136Z,42.80
2022-11-11T11:17:13.061Z,44.10
2022-11-11T11:18:13.058Z,43.90
2022-11-11T11:19:13.260Z,43.40
2022-11-11T11:20:13.105Z,44.80
2022-11-11T11:21:13.125Z,45.10
2022-11-11T11:22:13.194Z,43.90
2022-11-11T11:23:13.574Z,45.00
2022-11-11T11:24:13.798Z,44.50
2022-11-11T11:25:14.121Z,43.80
2022-11-11T15:55:28.119Z,58.40
2022-11-11T15:56:13.406Z,58.60
2022-11-11T16:01:23.871Z,58.20
2022-11-11T16:02:13.037Z,58.20
2022-11-11T16:03:13.085Z,58.40
2022-11-11T16:04:34.014Z,58.50
2022-11-11T16:05:13.721Z,58.40
2022-11-11T16:06:14.044Z,58.40
2022-11-11T16:07:13.230Z,58.20
2022-11-11T16:08:13.410Z,58.30
2022-11-11T16:09:13.337Z,58.50
2022-11-11T16:10:13.259Z,58.50
2022-11-11T16:11:13.186Z,58.60
2022-11-11T16:12:13.098Z,58.80
2022-11-11T16:13:13.264Z,58.90
2022-11-11T16:14:13.429Z,58.80
2022-11-11T16:15:13.728Z,58.60
2022-11-11T16:16:13.784Z,58.70
2022-11-11T16:17:13.800Z,58.90
2022-11-11T16:18:18.674Z,59.00
2022-11-11T16:19:13.563Z,59.30
2022-11-11T16:20:13.597Z,59.30
2022-11-11T16:21:13.529Z,59.10
2022-11-11T16:22:13.463Z,59.00
2022-11-11T16:23:13.440Z,58.10
2022-11-11T16:24:13.346Z,58.60
2022-11-11T16:25:13.247Z,58.80
2022-11-11T16:26:13.274Z,59.00
2022-11-11T16:27:13.257Z,59.30
2022-11-11T16:28:13.724Z,59.50
2022-11-11T16:29:13.748Z,59.50
2022-11-11T16:30:13.817Z,59.20
2022-11-11T16:31:13.894Z,59.10
2022-11-11T16:32:13.237Z,59.20
2022-11-11T16:33:13.442Z,59.60
2022-11-11T16:34:13.288Z,59.50
2022-11-11T16:35:13.211Z,59.00
2022-11-11T16:36:18.153Z,59.30
2022-11-11T16:37:15.986Z,59.00
2022-11-11T16:38:13.424Z,58.70
2022-11-11T16:39:13.937Z,58.80
2022-11-11T16:40:12.986Z,58.90
2022-11-11T16:41:13.158Z,59.20
2022-11-11T16:42:13.390Z,59.30
2022-11-11T16:43:13.478Z,59.60
2022-11-11T16:44:17.713Z,59.00
2022-11-11T16:45:13.155Z,59.30
2022-11-11T16:46:13.086Z,59.20
2022-11-11T16:47:13.556Z,59.20
2022-11-11T16:48:13.849Z,59.20
2022-11-11T16:49:13.998Z,59.60
2022-11-11T16:50:13.501Z,59.90
2022-11-11T16:51:13.794Z,59.90
2022-11-11T16:52:13.627Z,60.30
2022-11-11T16:53:13.553Z,60.20
2022-11-11T16:54:13.594Z,60.50
2022-11-11T16:55:13.511Z,60.60
2022-11-11T16:56:13.531Z,60.60
2022-11-11T16:57:13.466Z,60.80
2022-11-11T16:58:13.523Z,60.90
2022-11-11T16:59:13.586Z,61.00
2022-11-11T17:00:14.539Z,59.80
2022-11-11T17:01:13.713Z,58.80
2022-11-11T17:02:13.950Z,58.10
2022-11-11T17:03:12.975Z,58.00
2022-11-11T17:04:13.160Z,58.10
2022-11-11T17:05:13.112Z,58.00
2022-11-11T17:06:13.536Z,58.50
2022-11-11T17:07:17.428Z,58.00
2022-11-11T17:08:13.534Z,57.80
2022-11-11T17:09:13.428Z,57.80
2022-11-11T17:10:13.648Z,57.80
2022-11-11T17:11:13.717Z,57.40
2022-11-11T17:12:13.934Z,57.30
2022-11-11T17:13:12.891Z,57.10
2022-11-11T17:14:13.364Z,57.10
2022-11-11T17:15:13.335Z,57.40
2022-11-11T17:16:13.613Z,57.60
2022-11-11T17:17:13.465Z,57.80
2022-11-11T17:18:13.465Z,57.80
2022-11-11T17:19:13.385Z,57.90
2022-11-11T17:20:13.827Z,58.50
2022-11-11T17:21:13.756Z,58.70
2022-11-11T17:22:13.661Z,58.60
2022-11-11T17:23:13.705Z,58.30
2022-11-11T17:24:13.776Z,58.20
2022-11-11T17:25:13.854Z,58.00
2022-11-11T17:26:13.000Z,58.00
2022-11-11T17:27:12.968Z,58.10